Aviation Digital Data Service (ADDS)

Output produced by METARs form (2325 UTC 01 March 2015)
found at http://aviationweather.gov/adds/metars/
 
METAR text: KSPB 012253Z AUTO 16005KT 10SM CLR 13/M09 A3006 RMK AO2 SLP179 T01331089 $
Conditions at: KSPB (SCAPPOOSE , OR, US) observed 2253 UTC 01 March 2015
Temperature: 13.3°C (56°F)
Dewpoint: -8.9°C (16°F) [RH = 20%]
Pressure (altimeter): 30.06 inches Hg (1018.0 mb)
[Sea-level pressure: 1017.9 mb]
Winds: from the SSE (160 degrees) at 6 MPH (5 knots; 2.6 m/s)
Visibility: 10 or more miles (16+ km)
Ceiling: at least 12,000 feet AGL
Clouds: sky clear below 12,000 feet AGL
Weather:
SOME DATA ABOVE MAY BE INACCURATE!!!
"$" is an indication the sensor requires maintenance

METAR text: KSPB 012153Z AUTO 15004KT 10SM CLR 13/M03 A3010 RMK AO2 SLP193 T01281033 $
Conditions at: KSPB (SCAPPOOSE , OR, US) observed 2153 UTC 01 March 2015
Temperature: 12.8°C (55°F)
Dewpoint: -3.3°C (26°F) [RH = 32%]
Pressure (altimeter): 30.10 inches Hg (1019.4 mb)
[Sea-level pressure: 1019.3 mb]
Winds: from the SSE (150 degrees) at 5 MPH (4 knots; 2.1 m/s)
Visibility: 10 or more miles (16+ km)
Ceiling: at least 12,000 feet AGL
Clouds: sky clear below 12,000 feet AGL
Weather:
SOME DATA ABOVE MAY BE INACCURATE!!!
"$" is an indication the sensor requires maintenance